Time;durP1;ratioP1;P1;durP2;ratioP2;P2;SDS_P1;SDS_P2;PMS_P1;PMS_P2;Temp;Humidity;BMP_temperature;BMP_pressure;BME280_temperature;BME280_humidity;BME280_pressure;Samples;Min_cycle;Max_cycle;Signal;HPM_P1;HPM_P2
2024/01/29 00:01:07;;;;;;;16.83;9.52;;;1.40;99.90;;;;;;4926328;29;20035;-78
2024/01/29 00:03:32;;;;;;;13.82;8.68;;;1.40;99.90;;;;;;4893428;29;20079;-78
2024/01/29 00:05:58;;;;;;;17.65;9.52;;;1.40;99.90;;;;;;4925531;29;20119;-77
2024/01/29 00:08:24;;;;;;;14.75;9.27;;;1.40;99.90;;;;;;4926331;29;20039;-77
2024/01/29 00:10:49;;;;;;;14.45;8.95;;;1.40;99.90;;;;;;4926044;29;20035;-78
2024/01/29 00:13:15;;;;;;;15.15;9.73;;;1.40;99.90;;;;;;4924490;29;20032;-78
2024/01/29 00:15:41;;;;;;;15.73;9.52;;;1.40;99.90;;;;;;4940205;29;20299;-78
2024/01/29 00:18:06;;;;;;;15.00;8.88;;;1.40;99.90;;;;;;4898864;29;20040;-78
2024/01/29 00:20:32;;;;;;;16.15;9.10;;;1.40;99.90;;;;;;4909011;29;20196;-77
2024/01/29 00:22:58;;;;;;;14.30;9.63;;;1.30;99.90;;;;;;4893703;29;20223;-77
2024/01/29 00:25:23;;;;;;;17.08;9.85;;;1.40;99.90;;;;;;4926161;29;20218;-77
2024/01/29 00:27:50;;;;;;;15.13;9.00;;;1.30;99.90;;;;;;4909241;29;20087;-78
2024/01/29 00:30:16;;;;;;;15.50;9.68;;;1.30;99.90;;;;;;4909308;29;20103;-78
2024/01/29 00:32:41;;;;;;;12.77;9.20;;;1.30;99.90;;;;;;4925441;29;20063;-78
2024/01/29 00:35:07;;;;;;;14.50;8.85;;;1.30;99.90;;;;;;4925389;29;20027;-78
2024/01/29 00:37:33;;;;;;;14.07;9.35;;;1.20;99.90;;;;;;4925268;29;20020;-78
2024/01/29 00:39:59;;;;;;;15.05;8.95;;;1.20;99.90;;;;;;4893684;29;20317;-78
2024/01/29 00:42:25;;;;;;;15.73;9.65;;;1.20;99.90;;;;;;4893726;29;20217;-77
2024/01/29 00:44:50;;;;;;;14.25;9.23;;;1.20;99.90;;;;;;4925354;29;20048;-77
2024/01/29 00:47:16;;;;;;;15.38;9.50;;;1.30;99.90;;;;;;4909197;29;20036;-78
2024/01/29 00:49:42;;;;;;;16.58;10.88;;;1.40;99.90;;;;;;4925303;29;20036;-78
2024/01/29 00:52:08;;;;;;;14.25;9.15;;;1.30;99.90;;;;;;4893908;29;20028;-77
2024/01/29 00:54:33;;;;;;;14.85;9.68;;;1.30;99.90;;;;;;4908394;29;20032;-77
2024/01/29 00:56:59;;;;;;;17.38;9.90;;;1.30;99.90;;;;;;4909193;29;20024;-77
2024/01/29 00:59:25;;;;;;;15.77;9.73;;;1.30;99.90;;;;;;4893300;29;20201;-78
2024/01/29 01:01:51;;;;;;;15.40;9.48;;;1.30;99.90;;;;;;4925213;29;20333;-78
2024/01/29 01:04:17;;;;;;;15.75;9.88;;;1.20;99.90;;;;;;4926029;29;20036;-78
2024/01/29 01:06:42;;;;;;;13.57;10.25;;;1.10;99.90;;;;;;4925281;29;20028;-78
2024/01/29 01:09:09;;;;;;;14.80;9.75;;;1.10;99.90;;;;;;4909052;29;20032;-78
2024/01/29 01:11:35;;;;;;;16.35;9.52;;;1.10;99.90;;;;;;4925237;29;20024;-79
2024/01/29 01:14:01;;;;;;;16.00;10.18;;;1.10;99.90;;;;;;4906848;29;20028;-78
2024/01/29 01:16:27;;;;;;;16.08;10.02;;;1.00;99.90;;;;;;4892122;29;20214;-78
2024/01/29 01:18:54;;;;;;;16.85;10.00;;;1.00;99.90;;;;;;4890130;29;20031;-78
2024/01/29 01:21:23;;;;;;;15.15;9.52;;;1.00;99.90;;;;;;4890363;29;20032;-79
2024/01/29 01:23:49;;;;;;;15.82;9.68;;;1.00;99.90;;;;;;4906127;29;20033;-80
2024/01/29 01:26:14;;;;;;;15.95;9.88;;;1.00;99.90;;;;;;4909424;29;20061;-78
2024/01/29 01:28:40;;;;;;;15.10;9.52;;;1.00;99.90;;;;;;4877742;29;20118;-79
2024/01/29 01:31:06;;;;;;;14.60;9.18;;;1.00;99.90;;;;;;4910152;29;20235;-78
2024/01/29 01:33:31;;;;;;;16.23;9.82;;;0.90;99.90;;;;;;4929100;29;20039;-80
2024/01/29 01:35:57;;;;;;;16.52;9.98;;;0.90;99.90;;;;;;4912461;29;20360;-77
2024/01/29 01:38:23;;;;;;;15.07;9.95;;;0.90;99.90;;;;;;4912577;29;20042;-77
2024/01/29 01:40:48;;;;;;;19.45;10.63;;;0.80;99.90;;;;;;4911771;29;20040;-77
2024/01/29 01:43:17;;;;;;;15.07;9.80;;;0.80;99.90;;;;;;4912321;29;20337;-77
2024/01/29 01:45:42;;;;;;;16.08;10.25;;;0.80;99.90;;;;;;4928254;29;20028;-77
2024/01/29 01:48:08;;;;;;;14.73;10.00;;;0.80;99.90;;;;;;4911898;29;20027;-77
2024/01/29 01:50:34;;;;;;;16.88;9.88;;;0.80;99.90;;;;;;4895510;29;20108;-77
2024/01/29 01:53:00;;;;;;;15.93;10.43;;;0.80;99.90;;;;;;4928450;29;20051;-77
2024/01/29 01:55:27;;;;;;;17.23;10.02;;;0.80;99.90;;;;;;4896538;29;20184;-77
2024/01/29 01:57:53;;;;;;;14.10;9.85;;;0.80;99.90;;;;;;4911945;29;20028;-77
2024/01/29 02:00:20;;;;;;;16.08;10.63;;;0.80;99.90;;;;;;4911934;29;20040;-77
2024/01/29 02:02:45;;;;;;;16.98;9.98;;;0.80;99.90;;;;;;4928314;29;20020;-77
2024/01/29 02:05:11;;;;;;;16.92;10.60;;;0.90;99.90;;;;;;4911961;29;20083;-77
2024/01/29 02:07:37;;;;;;;16.85;11.13;;;0.80;99.90;;;;;;4910779;29;20145;-77
2024/01/29 02:10:04;;;;;;;17.27;10.70;;;0.80;99.90;;;;;;4928699;29;20020;-77
2024/01/29 02:12:30;;;;;;;15.02;9.88;;;0.80;99.90;;;;;;4895770;29;20035;-77
2024/01/29 02:14:56;;;;;;;16.73;10.55;;;0.80;99.90;;;;;;4895945;29;20032;-76
2024/01/29 02:17:21;;;;;;;15.18;9.98;;;0.70;99.90;;;;;;4896017;29;20020;-78
2024/01/29 02:19:47;;;;;;;15.98;9.48;;;0.70;99.90;;;;;;4927910;29;20268;-78
2024/01/29 02:22:13;;;;;;;15.23;10.02;;;0.70;99.90;;;;;;4896248;29;20049;-78
2024/01/29 02:24:39;;;;;;;16.42;10.70;;;0.70;99.90;;;;;;4910652;29;20202;-77
2024/01/29 02:27:04;;;;;;;17.50;11.85;;;0.70;99.90;;;;;;4917062;29;20044;-77
2024/01/29 02:29:30;;;;;;;17.10;11.50;;;0.70;99.90;;;;;;4908958;29;20092;-78
2024/01/29 02:31:56;;;;;;;17.67;11.48;;;0.70;99.90;;;;;;4889342;29;20056;-77
2024/01/29 02:34:22;;;;;;;18.48;11.18;;;0.70;99.90;;;;;;4874324;29;20041;-78
2024/01/29 02:36:48;;;;;;;19.45;11.65;;;0.70;99.90;;;;;;4872557;29;20041;-78
2024/01/29 02:39:13;;;;;;;18.17;10.77;;;0.70;99.90;;;;;;4874043;29;20067;-78
2024/01/29 02:41:39;;;;;;;16.73;11.20;;;0.70;99.90;;;;;;4904614;29;20212;-78
2024/01/29 02:44:05;;;;;;;17.50;11.40;;;0.60;99.90;;;;;;4900434;29;20028;-76
2024/01/29 02:46:30;;;;;;;20.23;12.27;;;0.60;99.90;;;;;;4907626;29;20072;-77
2024/01/29 02:48:56;;;;;;;18.88;11.75;;;0.60;99.90;;;;;;4908215;29;20072;-78
2024/01/29 02:51:22;;;;;;;19.33;12.30;;;0.50;99.90;;;;;;4909269;29;20216;-78
2024/01/29 02:53:47;;;;;;;18.83;11.30;;;0.50;99.90;;;;;;4907641;29;20032;-78
2024/01/29 02:56:13;;;;;;;17.80;11.50;;;0.50;99.90;;;;;;4907952;29;20260;-78
2024/01/29 02:58:39;;;;;;;16.50;11.55;;;0.50;99.90;;;;;;4908483;29;20041;-78
2024/01/29 03:01:05;;;;;;;17.88;11.73;;;0.50;99.90;;;;;;4907937;29;20021;-77
2024/01/29 03:03:30;;;;;;;19.00;12.32;;;0.40;99.90;;;;;;4891038;29;20025;-78
2024/01/29 03:05:56;;;;;;;19.90;12.07;;;0.40;99.90;;;;;;4907602;29;20028;-77
2024/01/29 03:08:21;;;;;;;16.17;11.15;;;0.40;99.90;;;;;;4908745;29;20223;-77
2024/01/29 03:10:47;;;;;;;19.20;12.02;;;0.50;99.90;;;;;;4907984;29;20044;-77
2024/01/29 03:13:13;;;;;;;20.00;12.23;;;0.50;99.90;;;;;;4907498;29;20096;-78
2024/01/29 03:15:38;;;;;;;18.80;11.95;;;0.50;99.90;;;;;;4906880;29;20020;-77
2024/01/29 03:18:04;;;;;;;19.55;12.45;;;0.60;99.90;;;;;;4907642;29;20039;-78
2024/01/29 03:20:30;;;;;;;20.70;12.57;;;0.60;99.90;;;;;;4890667;29;20040;-78
2024/01/29 03:22:56;;;;;;;15.88;11.48;;;0.60;99.90;;;;;;4887509;29;20167;-78
2024/01/29 03:25:21;;;;;;;20.48;12.48;;;0.60;99.90;;;;;;4889908;29;20055;-78
2024/01/29 03:27:47;;;;;;;17.30;11.60;;;0.50;99.90;;;;;;4889346;29;20144;-78
2024/01/29 03:30:13;;;;;;;20.40;11.85;;;0.50;99.90;;;;;;4889499;29;20096;-78
2024/01/29 03:32:39;;;;;;;17.70;11.65;;;0.50;99.90;;;;;;4906521;29;20275;-78
2024/01/29 03:35:05;;;;;;;16.92;12.05;;;0.40;99.90;;;;;;4908303;29;20100;-76
2024/01/29 03:37:30;;;;;;;16.60;11.32;;;0.50;99.90;;;;;;4906713;29;20024;-78
2024/01/29 03:39:56;;;;;;;18.58;11.57;;;0.50;99.90;;;;;;4909449;29;20036;-77
2024/01/29 03:42:22;;;;;;;18.27;12.13;;;0.50;99.90;;;;;;4909868;29;20220;-76
2024/01/29 03:44:47;;;;;;;18.27;12.38;;;0.50;99.90;;;;;;4925743;29;20032;-77
2024/01/29 03:47:13;;;;;;;17.70;12.15;;;0.50;99.90;;;;;;4909805;29;20028;-77
2024/01/29 03:49:39;;;;;;;16.95;11.45;;;0.50;99.90;;;;;;4909694;29;20032;-78
2024/01/29 03:52:04;;;;;;;18.25;11.70;;;0.50;99.90;;;;;;4926930;29;20058;-77
2024/01/29 03:54:30;;;;;;;21.30;13.13;;;0.50;99.90;;;;;;4909338;29;20032;-77
2024/01/29 03:56:56;;;;;;;18.25;12.00;;;0.40;99.90;;;;;;4909875;29;20036;-77
2024/01/29 03:59:22;;;;;;;18.23;11.88;;;0.50;99.90;;;;;;4925787;29;20187;-77
2024/01/29 04:01:48;;;;;;;18.23;12.10;;;0.50;99.90;;;;;;4909321;29;20083;-78
2024/01/29 04:04:14;;;;;;;17.27;11.85;;;0.50;99.90;;;;;;4909654;29;20103;-77
2024/01/29 04:06:40;;;;;;;15.43;10.73;;;0.50;99.90;;;;;;4908978;29;20028;-77
2024/01/29 04:09:09;;;;;;;17.88;11.40;;;0.50;99.90;;;;;;4926371;29;20040;-77
2024/01/29 04:11:35;;;;;;;20.77;12.43;;;0.50;99.90;;;;;;4895954;29;20031;-76
2024/01/29 04:14:01;;;;;;;18.38;11.40;;;0.40;99.90;;;;;;4894517;29;20298;-77
2024/01/29 04:16:27;;;;;;;19.08;11.27;;;0.50;99.90;;;;;;4926222;29;20042;-79
2024/01/29 04:18:53;;;;;;;16.27;10.82;;;0.40;99.90;;;;;;4909514;29;20050;-78
2024/01/29 04:21:19;;;;;;;18.00;10.60;;;0.40;99.90;;;;;;4926323;29;20071;-78
2024/01/29 04:23:44;;;;;;;17.85;11.20;;;0.40;99.90;;;;;;4925999;29;20035;-78
2024/01/29 04:26:10;;;;;;;18.60;11.50;;;0.40;99.90;;;;;;4909591;29;20024;-78
2024/01/29 04:28:35;;;;;;;15.35;10.80;;;0.50;99.90;;;;;;4908996;29;20083;-78
2024/01/29 04:31:01;;;;;;;18.08;11.20;;;0.40;99.90;;;;;;4923928;29;20040;-77
2024/01/29 04:33:27;;;;;;;16.60;10.77;;;0.40;99.90;;;;;;4906834;29;20270;-78
2024/01/29 04:35:53;;;;;;;17.50;10.25;;;0.40;99.90;;;;;;4907310;29;20036;-78
2024/01/29 04:38:19;;;;;;;15.32;9.82;;;0.40;99.90;;;;;;4907265;29;20036;-77
2024/01/29 04:40:44;;;;;;;17.27;9.90;;;0.40;99.90;;;;;;4889819;29;20049;-78
2024/01/29 04:43:10;;;;;;;15.05;9.82;;;0.40;99.90;;;;;;4890829;29;20048;-77
2024/01/29 04:45:36;;;;;;;15.52;9.95;;;0.40;99.90;;;;;;4906733;29;20054;-78
2024/01/29 04:48:02;;;;;;;16.38;10.48;;;0.40;99.90;;;;;;4890250;29;20032;-78
2024/01/29 04:50:28;;;;;;;18.17;10.60;;;0.40;99.90;;;;;;4906206;29;20020;-78
2024/01/29 04:52:53;;;;;;;16.05;10.15;;;0.40;99.90;;;;;;4906927;29;20052;-77
2024/01/29 04:55:19;;;;;;;15.63;10.15;;;0.50;99.90;;;;;;4907191;29;20044;-78
2024/01/29 04:57:45;;;;;;;16.30;10.18;;;0.60;99.90;;;;;;4906368;29;20055;-77
2024/01/29 05:00:11;;;;;;;14.93;10.38;;;0.60;99.90;;;;;;4909052;29;20048;-77
2024/01/29 05:02:36;;;;;;;18.85;11.25;;;0.70;99.90;;;;;;4909512;29;20028;-78
2024/01/29 05:05:02;;;;;;;17.02;10.43;;;0.70;99.90;;;;;;4894135;29;20063;-77
2024/01/29 05:07:28;;;;;;;16.27;9.80;;;0.70;99.90;;;;;;4893785;29;20072;-78
2024/01/29 05:09:54;;;;;;;18.20;10.80;;;0.70;99.90;;;;;;4911030;29;20100;-77
2024/01/29 05:12:20;;;;;;;13.93;9.40;;;0.70;99.90;;;;;;4894251;29;20020;-78
2024/01/29 05:14:45;;;;;;;15.27;9.40;;;0.80;99.90;;;;;;4910336;29;20036;-76
2024/01/29 05:17:11;;;;;;;16.67;9.98;;;0.80;99.90;;;;;;4910497;29;20036;-76
2024/01/29 05:19:40;;;;;;;16.55;10.20;;;0.90;99.90;;;;;;4891626;29;20207;-77
2024/01/29 05:22:05;;;;;;;18.00;11.32;;;0.80;99.90;;;;;;4878233;29;20029;-78
2024/01/29 05:24:31;;;;;;;17.85;10.60;;;0.80;99.90;;;;;;4910050;29;20039;-78
2024/01/29 05:26:57;;;;;;;16.63;10.55;;;0.80;99.90;;;;;;4878731;29;20029;-78
2024/01/29 05:29:22;;;;;;;15.02;9.90;;;0.80;99.90;;;;;;4910936;29;20382;-78
2024/01/29 05:31:48;;;;;;;17.73;10.38;;;0.70;99.90;;;;;;4877550;29;20052;-77
2024/01/29 05:34:14;;;;;;;15.90;10.02;;;0.70;99.90;;;;;;4910637;29;20036;-77
2024/01/29 05:36:39;;;;;;;16.35;9.25;;;0.70;99.90;;;;;;4892594;29;20361;-78
2024/01/29 05:39:05;;;;;;;13.55;9.00;;;0.70;99.90;;;;;;4893402;29;20223;-77
2024/01/29 05:41:30;;;;;;;15.20;10.15;;;0.60;99.90;;;;;;4909994;29;20028;-75
2024/01/29 05:43:56;;;;;;;16.27;9.60;;;0.70;99.90;;;;;;4893580;29;20062;-74
2024/01/29 05:46:22;;;;;;;14.82;9.45;;;0.80;99.90;;;;;;4893635;29;20434;-75
2024/01/29 05:48:47;;;;;;;19.38;10.23;;;0.80;99.90;;;;;;4909723;29;20333;-74
2024/01/29 05:51:13;;;;;;;15.23;9.90;;;0.80;99.90;;;;;;4910106;29;20025;-73
2024/01/29 05:53:38;;;;;;;15.38;9.43;;;0.80;99.90;;;;;;4909785;29;20044;-74
2024/01/29 05:56:05;;;;;;;14.18;9.55;;;0.80;99.90;;;;;;4909431;29;20031;-74
2024/01/29 05:58:33;;;;;;;15.98;9.45;;;0.80;99.90;;;;;;4877193;29;20037;-74
2024/01/29 06:00:59;;;;;;;16.33;9.98;;;0.80;99.90;;;;;;4890939;29;20041;-74
2024/01/29 06:03:25;;;;;;;15.00;8.90;;;0.80;99.90;;;;;;4891291;29;20051;-76
2024/01/29 06:05:51;;;;;;;16.95;8.60;;;0.80;99.90;;;;;;4890391;29;20230;-76
2024/01/29 06:08:17;;;;;;;14.85;7.78;;;0.80;99.90;;;;;;4890998;29;20029;-75
2024/01/29 06:10:43;;;;;;;13.10;8.23;;;0.80;99.90;;;;;;4890178;29;20029;-75
2024/01/29 06:13:08;;;;;;;13.82;8.07;;;0.80;99.90;;;;;;4897551;29;20032;-77
2024/01/29 06:15:34;;;;;;;12.70;7.43;;;0.80;99.90;;;;;;4881860;29;20241;-75
2024/01/29 06:18:00;;;;;;;12.85;7.55;;;0.80;99.90;;;;;;4890945;29;20036;-77
2024/01/29 06:20:25;;;;;;;13.27;8.20;;;0.80;99.90;;;;;;4889501;29;20103;-77
2024/01/29 06:22:51;;;;;;;13.32;7.75;;;0.80;99.90;;;;;;4890302;29;20080;-77
2024/01/29 06:25:19;;;;;;;13.25;8.10;;;0.70;99.90;;;;;;4889664;29;20303;-77
2024/01/29 06:27:45;;;;;;;12.75;8.13;;;0.70;99.90;;;;;;4873532;29;20275;-77
2024/01/29 06:30:12;;;;;;;14.60;7.60;;;0.70;99.90;;;;;;4889226;29;20105;-77
2024/01/29 06:32:38;;;;;;;12.20;7.25;;;0.70;99.90;;;;;;4905744;29;20390;-77
2024/01/29 06:35:04;;;;;;;11.73;7.38;;;0.70;99.90;;;;;;4909133;29;20024;-77
2024/01/29 06:37:29;;;;;;;14.23;8.18;;;0.70;99.90;;;;;;4908827;29;20077;-77
2024/01/29 06:39:55;;;;;;;13.55;7.60;;;0.70;99.90;;;;;;4908250;29;20041;-77
2024/01/29 06:42:21;;;;;;;12.20;7.40;;;0.70;99.90;;;;;;4908768;29;20033;-77
2024/01/29 06:44:46;;;;;;;12.40;7.55;;;0.70;99.90;;;;;;4907553;29;20251;-77
2024/01/29 06:47:14;;;;;;;12.85;7.45;;;0.70;99.90;;;;;;4909183;29;20275;-76
2024/01/29 06:49:40;;;;;;;11.38;7.20;;;0.80;99.90;;;;;;4907148;29;20106;-78
2024/01/29 06:52:06;;;;;;;14.38;7.28;;;0.80;99.90;;;;;;4900968;29;20048;-77
2024/01/29 06:54:31;;;;;;;10.95;7.15;;;0.80;99.90;;;;;;4907823;29;20020;-77
2024/01/29 06:56:58;;;;;;;13.15;8.25;;;0.80;99.90;;;;;;4902712;29;20037;-77
2024/01/29 06:59:25;;;;;;;12.90;7.47;;;0.80;99.90;;;;;;4908182;29;20044;-77
2024/01/29 07:01:52;;;;;;;9.68;7.15;;;0.80;99.90;;;;;;4907906;29;20096;-77
2024/01/29 07:04:18;;;;;;;11.05;6.80;;;0.80;99.90;;;;;;4906807;29;20032;-76
2024/01/29 07:06:44;;;;;;;11.45;7.82;;;0.80;99.90;;;;;;4906873;29;20063;-76
2024/01/29 07:09:09;;;;;;;13.68;8.18;;;0.80;99.90;;;;;;4908513;29;20100;-77
2024/01/29 07:11:35;;;;;;;13.00;7.72;;;0.80;99.90;;;;;;4907747;29;20037;-77
2024/01/29 07:14:01;;;;;;;11.98;7.80;;;0.80;99.90;;;;;;4907960;29;20091;-76
2024/01/29 07:16:26;;;;;;;12.43;7.97;;;0.80;99.90;;;;;;4908028;29;20076;-76
2024/01/29 07:18:52;;;;;;;10.95;6.63;;;0.90;99.90;;;;;;4906455;29;20125;-76
2024/01/29 07:21:18;;;;;;;14.02;8.27;;;1.00;99.90;;;;;;4906635;29;20047;-78
2024/01/29 07:23:44;;;;;;;12.25;7.28;;;1.00;99.90;;;;;;4906748;29;20080;-76
2024/01/29 07:26:09;;;;;;;15.50;8.27;;;1.10;99.90;;;;;;4906861;29;20117;-76
2024/01/29 07:28:35;;;;;;;14.15;7.85;;;1.20;99.90;;;;;;4906509;29;20032;-77
2024/01/29 07:31:00;;;;;;;13.40;8.15;;;1.30;99.90;;;;;;4908478;29;20028;-76
2024/01/29 07:33:26;;;;;;;11.18;7.55;;;1.50;99.90;;;;;;4927971;29;20035;-76
2024/01/29 07:35:52;;;;;;;12.90;8.05;;;1.60;99.90;;;;;;4926341;29;20271;-76
2024/01/29 07:38:17;;;;;;;12.55;7.78;;;1.70;99.90;;;;;;4925828;29;20098;-77
2024/01/29 07:40:43;;;;;;;12.40;7.38;;;1.80;99.90;;;;;;4925965;29;20036;-76
2024/01/29 07:43:09;;;;;;;12.13;7.47;;;1.90;99.90;;;;;;4926722;29;20218;-77
2024/01/29 07:45:35;;;;;;;13.82;7.70;;;1.90;99.90;;;;;;4926275;29;20028;-76
2024/01/29 07:48:04;;;;;;;10.75;6.78;;;2.10;99.90;;;;;;4909751;29;20028;-77
2024/01/29 07:50:30;;;;;;;15.25;6.90;;;2.10;99.90;;;;;;4926287;29;20059;-76
2024/01/29 07:52:56;;;;;;;11.75;6.75;;;2.20;99.90;;;;;;4909280;29;20052;-76
2024/01/29 07:55:23;;;;;;;12.30;6.53;;;2.40;99.90;;;;;;4926284;29;20325;-77
2024/01/29 07:57:49;;;;;;;10.20;6.53;;;2.40;99.90;;;;;;4925175;29;20043;-76
2024/01/29 08:00:15;;;;;;;12.40;6.55;;;2.50;99.90;;;;;;4926165;29;20066;-76
2024/01/29 08:02:40;;;;;;;10.88;6.40;;;2.50;99.90;;;;;;4925720;29;20031;-75
2024/01/29 08:05:06;;;;;;;12.98;6.60;;;2.50;99.90;;;;;;4925327;29;20032;-75
2024/01/29 08:07:32;;;;;;;11.20;6.95;;;2.60;99.90;;;;;;4925520;29;20048;-75
2024/01/29 08:10:01;;;;;;;11.32;6.22;;;2.70;99.90;;;;;;4893650;29;20044;-75
2024/01/29 08:12:27;;;;;;;13.60;6.95;;;2.70;99.90;;;;;;4926011;29;20047;-74
2024/01/29 08:14:53;;;;;;;9.85;5.95;;;2.80;99.90;;;;;;4908929;29;20054;-75
2024/01/29 08:17:19;;;;;;;11.20;6.57;;;2.90;99.90;;;;;;4926295;29;20024;-75
2024/01/29 08:19:45;;;;;;;11.68;6.53;;;2.90;99.90;;;;;;4892875;29;20039;-75
2024/01/29 08:22:10;;;;;;;11.77;6.30;;;3.00;99.90;;;;;;4925196;29;20202;-75
2024/01/29 08:24:39;;;;;;;10.93;6.50;;;3.10;99.90;;;;;;4908416;29;20213;-77
2024/01/29 08:27:05;;;;;;;9.95;6.25;;;3.20;99.90;;;;;;4908953;29;20099;-76
2024/01/29 08:29:31;;;;;;;9.60;6.03;;;3.30;99.90;;;;;;4924011;29;20095;-76
2024/01/29 08:31:57;;;;;;;11.15;6.38;;;3.30;99.90;;;;;;4925466;29;20330;-76
2024/01/29 08:34:23;;;;;;;10.43;6.18;;;3.50;99.90;;;;;;4908274;29;20036;-75
2024/01/29 08:36:48;;;;;;;11.20;6.82;;;3.50;99.90;;;;;;4925248;29;20067;-75
2024/01/29 08:39:14;;;;;;;10.82;6.82;;;3.60;99.90;;;;;;4939755;29;20185;-76
2024/01/29 08:41:40;;;;;;;12.55;6.50;;;3.60;99.90;;;;;;4914444;29;20030;-77
2024/01/29 08:44:06;;;;;;;10.27;6.20;;;3.70;99.90;;;;;;4925753;29;20238;-76
2024/01/29 08:46:32;;;;;;;12.45;6.72;;;3.80;99.90;;;;;;4925062;29;20039;-76
2024/01/29 08:48:58;;;;;;;10.60;6.20;;;3.80;99.90;;;;;;4925820;29;20318;-75
2024/01/29 08:51:23;;;;;;;10.52;6.57;;;3.80;99.90;;;;;;4908774;29;20035;-76
2024/01/29 08:53:49;;;;;;;10.23;5.63;;;3.90;99.90;;;;;;4924984;29;20024;-75
2024/01/29 08:56:15;;;;;;;14.20;6.95;;;4.00;99.90;;;;;;4925359;29;20056;-75
2024/01/29 08:58:41;;;;;;;12.65;7.03;;;4.00;99.90;;;;;;4908299;29;20034;-76
2024/01/29 09:01:07;;;;;;;13.02;7.50;;;4.00;99.90;;;;;;4908503;29;20056;-75
2024/01/29 09:03:32;;;;;;;12.85;7.68;;;4.10;99.90;;;;;;4907931;29;20071;-76
2024/01/29 09:05:58;;;;;;;12.38;7.30;;;4.10;99.90;;;;;;4911291;29;20195;-75
2024/01/29 09:08:24;;;;;;;13.68;7.68;;;4.10;99.90;;;;;;4874117;29;20052;-76
2024/01/29 09:10:50;;;;;;;12.48;7.63;;;4.20;99.90;;;;;;4906078;29;20040;-76
2024/01/29 09:13:15;;;;;;;14.60;7.35;;;4.30;99.90;;;;;;4906662;29;20020;-76
2024/01/29 09:15:41;;;;;;;11.80;7.43;;;4.40;99.80;;;;;;4905175;29;20111;-76
2024/01/29 09:18:07;;;;;;;10.85;6.88;;;4.50;99.40;;;;;;4907050;29;20100;-77
2024/01/29 09:20:32;;;;;;;11.45;7.25;;;4.60;99.00;;;;;;4889217;29;20096;-76
2024/01/29 09:22:58;;;;;;;11.82;7.47;;;4.80;99.20;;;;;;4917445;29;20039;-76
2024/01/29 09:25:24;;;;;;;11.38;6.70;;;4.90;99.10;;;;;;4908416;29;20125;-76
2024/01/29 09:27:49;;;;;;;14.60;7.82;;;4.90;98.50;;;;;;4924998;29;20020;-77
2024/01/29 09:30:15;;;;;;;12.63;7.32;;;5.00;98.30;;;;;;4925607;29;20083;-77
2024/01/29 09:32:41;;;;;;;13.32;7.70;;;5.10;98.10;;;;;;4923544;29;20078;-77
2024/01/29 09:35:08;;;;;;;15.15;7.80;;;5.10;98.00;;;;;;4925417;29;20040;-77
2024/01/29 09:37:34;;;;;;;12.70;7.47;;;5.10;97.60;;;;;;4924948;29;20095;-77
2024/01/29 09:40:00;;;;;;;16.50;7.63;;;5.30;98.20;;;;;;4924976;29;20341;-78
2024/01/29 09:42:32;;;;;;;12.60;7.25;;;5.50;97.80;;;;;;4925293;29;20087;-77
2024/01/29 09:45:01;;;;;;;12.98;7.13;;;5.50;96.80;;;;;;4893276;29;20039;-78
2024/01/29 09:47:28;;;;;;;10.65;6.60;;;5.70;96.60;;;;;;4928774;29;20047;-77
2024/01/29 09:49:55;;;;;;;10.85;6.75;;;5.80;96.50;;;;;;4911992;29;20020;-79
2024/01/29 09:52:21;;;;;;;10.15;6.20;;;5.90;95.80;;;;;;4928768;29;20108;-78
2024/01/29 09:54:49;;;;;;;10.10;6.05;;;5.90;95.60;;;;;;4911171;29;20406;-78
2024/01/29 09:57:15;;;;;;;9.32;5.90;;;6.00;95.00;;;;;;4911970;29;20055;-77
2024/01/29 09:59:41;;;;;;;11.75;6.32;;;6.00;95.20;;;;;;4911025;29;20047;-78
2024/01/29 10:02:09;;;;;;;14.68;7.10;;;6.20;95.20;;;;;;4928823;29;20253;-76
2024/01/29 10:04:35;;;;;;;11.48;6.78;;;6.30;95.30;;;;;;4911363;29;20024;-77
2024/01/29 10:07:01;;;;;;;13.10;6.95;;;6.40;94.90;;;;;;4927501;29;20036;-78
2024/01/29 10:09:28;;;;;;;12.65;7.07;;;6.50;94.80;;;;;;4911996;29;20035;-78
2024/01/29 10:11:54;;;;;;;14.85;7.25;;;6.60;94.70;;;;;;4929185;29;20083;-78
2024/01/29 10:14:20;;;;;;;12.55;7.40;;;6.70;94.40;;;;;;4928387;29;20083;-76
2024/01/29 10:16:48;;;;;;;14.18;7.25;;;6.80;94.10;;;;;;4920070;29;20111;-78
2024/01/29 10:19:14;;;;;;;12.70;8.00;;;6.70;94.20;;;;;;4909531;29;20344;-78
2024/01/29 10:22:35;;;;;;;12.35;7.57;;;6.70;94.30;;;;;;4892128;29;20040;-78
2024/01/29 10:25:04;;;;;;;17.05;8.85;;;6.80;94.40;;;;;;4918372;29;20115;-78
2024/01/29 10:27:40;;;;;;;13.35;7.95;;;7.00;94.10;;;;;;4907744;29;20041;-78
2024/01/29 10:30:07;;;;;;;13.85;7.85;;;7.00;93.70;;;;;;4908235;29;20051;-78
2024/01/29 10:32:35;;;;;;;14.65;8.35;;;7.10;93.70;;;;;;4903876;29;20063;-77
2024/01/29 10:35:01;;;;;;;15.20;8.57;;;7.10;93.70;;;;;;4890140;29;20044;-77
2024/01/29 10:37:27;;;;;;;13.68;8.25;;;7.10;93.80;;;;;;4888853;29;20036;-77
2024/01/29 10:40:00;;;;;;;16.15;8.90;;;7.30;93.70;;;;;;4889141;29;20033;-76
2024/01/29 10:42:28;;;;;;;13.35;8.85;;;7.40;93.40;;;;;;4889451;29;20048;-78
2024/01/29 10:44:58;;;;;;;13.52;7.80;;;7.50;93.20;;;;;;4891933;29;20116;-77
2024/01/29 10:47:37;;;;;;;18.13;8.73;;;7.70;93.10;;;;;;4892273;29;20310;-77
2024/01/29 10:50:04;;;;;;;13.50;8.38;;;7.90;92.80;;;;;;4892549;29;20039;-77
2024/01/29 10:52:30;;;;;;;14.75;8.45;;;8.00;92.20;;;;;;4906738;29;20047;-78
2024/01/29 10:54:57;;;;;;;14.75;7.95;;;8.20;92.10;;;;;;4908271;29;20120;-78
2024/01/29 10:57:24;;;;;;;12.55;8.10;;;8.30;92.00;;;;;;4907791;29;20052;-78
2024/01/29 10:59:51;;;;;;;15.98;8.23;;;8.40;91.80;;;;;;4907171;29;20041;-78
2024/01/29 11:02:18;;;;;;;12.50;7.35;;;8.60;91.60;;;;;;4908622;29;20204;-78
2024/01/29 11:04:44;;;;;;;13.45;8.25;;;8.80;91.20;;;;;;4907709;29;20260;-78
2024/01/29 11:07:22;;;;;;;13.50;7.65;;;9.10;90.80;;;;;;4907245;29;20323;-77
2024/01/29 11:10:16;;;;;;;11.60;6.95;;;9.40;90.40;;;;;;4906680;29;20132;-78
2024/01/29 11:12:43;;;;;;;12.18;7.30;;;9.70;90.00;;;;;;4905935;29;20082;-78
2024/01/29 11:15:09;;;;;;;10.55;7.30;;;10.10;87.90;;;;;;4891363;29;20092;-78
2024/01/29 11:17:35;;;;;;;11.55;7.15;;;10.40;86.80;;;;;;4907477;29;20043;-76
2024/01/29 11:20:04;;;;;;;12.45;7.13;;;10.60;85.60;;;;;;4905745;29;20220;-77
2024/01/29 11:22:37;;;;;;;10.13;6.68;;;11.00;84.60;;;;;;4897908;29;20044;-77
2024/01/29 11:25:13;;;;;;;10.95;6.88;;;11.50;82.90;;;;;;4922769;29;20029;-78
2024/01/29 11:27:39;;;;;;;10.77;6.82;;;12.10;81.90;;;;;;4908281;29;20036;-77
2024/01/29 11:30:46;;;;;;;11.63;6.20;;;12.70;79.60;;;;;;4904837;29;20057;-79
2024/01/29 11:33:14;;;;;;;8.90;6.22;;;13.30;77.50;;;;;;4924999;29;20059;-77
2024/01/29 11:39:24;;;;;;;8.13;5.55;;;14.10;74.40;;;;;;4908378;29;20164;-79
2024/01/29 11:45:38;;;;;;;9.63;5.80;;;15.40;70.50;;;;;;4851007;29;20033;-79
2024/01/29 11:48:11;;;;;;;7.57;5.10;;;15.90;68.40;;;;;;4907530;29;20100;-79
2024/01/29 11:50:54;;;;;;;7.45;5.47;;;16.10;66.90;;;;;;4907209;29;20326;-79
2024/01/29 11:53:31;;;;;;;7.88;4.80;;;15.80;66.60;;;;;;4892042;29;20219;-79
2024/01/29 11:55:59;;;;;;;8.30;5.22;;;15.70;67.50;;;;;;4894774;29;20144;-78
2024/01/29 11:58:34;;;;;;;;;;;16.20;66.10;;;;;;4910639;29;20051;-78
2024/01/29 12:01:28;;;;;;;9.77;5.13;;;16.70;64.90;;;;;;4926666;29;19915;-78
2024/01/29 12:03:54;;;;;;;8.93;5.05;;;17.20;64.40;;;;;;4904143;29;20032;-80
2024/01/29 12:06:26;;;;;;;7.93;5.05;;;18.00;62.90;;;;;;4893898;29;20047;-79
2024/01/29 12:08:57;;;;;;;7.03;4.78;;;18.30;60.60;;;;;;4909317;29;20262;-78
2024/01/29 12:11:54;;;;;;;7.82;4.90;;;18.60;59.70;;;;;;4910408;29;20044;-81
2024/01/29 12:14:23;;;;;;;7.22;4.78;;;19.00;58.80;;;;;;4893965;29;20028;-79
2024/01/29 12:17:23;;;;;;;5.63;4.38;;;19.20;58.40;;;;;;4909782;29;20056;-78
2024/01/29 12:19:51;;;;;;;6.28;4.28;;;19.20;57.70;;;;;;4908831;29;20070;-78
2024/01/29 12:22:18;;;;;;;;;;;19.40;57.80;;;;;;4895175;29;20028;-77
2024/01/29 12:24:44;;;;;;;6.05;3.67;;;20.00;55.90;;;;;;4905798;29;19978;-78
2024/01/29 12:27:29;;;;;;;6.15;3.47;;;20.40;54.70;;;;;;4906330;29;20020;-78
2024/01/29 12:29:57;;;;;;;7.30;3.42;;;20.40;54.60;;;;;;4923977;29;20063;-78
2024/01/29 12:32:24;;;;;;;7.13;3.45;;;20.60;54.00;;;;;;4925229;29;20115;-78
2024/01/29 12:34:50;;;;;;;6.15;4.15;;;21.00;54.80;;;;;;4908794;29;20028;-77
2024/01/29 12:44:56;;;;;;;10.60;5.00;;;22.10;54.10;;;;;;4926078;29;20034;-79
2024/01/29 12:48:02;;;;;;;10.70;5.38;;;23.00;53.20;;;;;;4898049;29;20080;-78
2024/01/29 12:53:25;;;;;;;9.85;5.00;;;23.70;51.00;;;;;;4891420;29;20037;-81
2024/01/29 12:55:51;;;;;;;7.50;4.53;;;23.90;50.70;;;;;;4907047;29;20129;-80
2024/01/29 12:58:20;;;;;;;8.27;4.80;;;23.50;51.60;;;;;;4924404;29;20032;-79
2024/01/29 13:00:55;;;;;;;8.75;4.72;;;23.30;51.70;;;;;;4917078;29;20028;-81
2024/01/29 13:03:37;;;;;;;8.95;4.32;;;23.70;51.60;;;;;;4923478;29;20156;-78